createdAt,value
2022-10-07T00:01:16.748Z,24.10
2022-10-07T00:06:21.111Z,24.10
2022-10-07T00:11:25.884Z,24.10
2022-10-07T00:16:30.003Z,24.10
2022-10-07T00:21:33.576Z,24.00
2022-10-07T00:26:38.172Z,24.10
2022-10-07T00:31:41.620Z,24.10
2022-10-07T00:36:44.257Z,24.10
2022-10-07T00:41:50.200Z,24.10
2022-10-07T00:46:55.220Z,24.10
2022-10-07T00:51:58.858Z,24.00
2022-10-07T00:57:02.831Z,24.10
2022-10-07T01:02:05.512Z,24.10
2022-10-07T01:07:09.142Z,24.00
2022-10-07T01:12:18.320Z,24.10
2022-10-07T01:17:23.654Z,24.00
2022-10-07T01:22:30.998Z,24.10
2022-10-07T01:27:36.159Z,23.90
2022-10-07T01:32:40.017Z,24.00
2022-10-07T01:37:45.488Z,24.00
2022-10-07T01:42:51.213Z,23.90
2022-10-07T01:47:53.950Z,23.90
2022-10-07T01:53:04.845Z,24.00
2022-10-07T01:58:13.303Z,24.00
2022-10-07T02:03:22.934Z,24.00
2022-10-07T02:08:30.446Z,23.90
2022-10-07T02:13:37.171Z,23.90
2022-10-07T02:18:40.599Z,23.90
2022-10-07T02:23:44.812Z,23.90
2022-10-07T02:28:51.534Z,23.90
2022-10-07T02:33:57.087Z,24.00
2022-10-07T02:39:00.208Z,23.90
2022-10-07T02:44:09.410Z,24.00
2022-10-07T02:49:13.387Z,23.90
2022-10-07T02:54:18.758Z,23.90
2022-10-07T02:59:23.318Z,23.90
2022-10-07T03:04:25.982Z,23.90
2022-10-07T03:09:29.125Z,23.90
2022-10-07T03:14:35.689Z,23.90
2022-10-07T03:19:38.827Z,23.90
2022-10-07T03:24:42.555Z,23.80
2022-10-07T03:29:46.592Z,23.90
2022-10-07T03:34:49.217Z,23.90
2022-10-07T03:39:52.659Z,23.90
2022-10-07T03:44:56.591Z,23.90
2022-10-07T03:50:00.227Z,23.90
2022-10-07T03:55:03.218Z,23.90
2022-10-07T04:00:08.394Z,23.90
2022-10-07T04:05:11.329Z,23.90
2022-10-07T04:10:15.231Z,23.90
2022-10-07T04:15:19.600Z,23.90
2022-10-07T04:20:22.282Z,23.90
2022-10-07T04:25:38.382Z,23.80
2022-10-07T04:30:43.665Z,23.80
2022-10-07T04:35:46.588Z,23.80
2022-10-07T04:40:51.307Z,23.80
2022-10-07T04:45:56.144Z,23.90
2022-10-07T04:51:02.891Z,23.80
2022-10-07T04:56:08.271Z,23.90
2022-10-07T05:01:13.815Z,23.70
2022-10-07T05:06:16.796Z,23.80
2022-10-07T05:11:19.401Z,23.80
2022-10-07T05:16:23.424Z,23.90
2022-10-07T05:21:26.146Z,23.80
2022-10-07T05:26:28.730Z,23.80
2022-10-07T05:31:32.728Z,23.80
2022-10-07T05:36:35.384Z,23.80
2022-10-07T05:41:45.216Z,23.80
2022-10-07T05:46:49.975Z,23.80
2022-10-07T05:51:52.629Z,23.80
2022-10-07T05:56:55.262Z,23.80
2022-10-07T06:02:00.227Z,23.70
2022-10-07T06:07:04.102Z,23.80
2022-10-07T06:12:24.141Z,23.80
2022-10-07T06:17:28.099Z,23.80
2022-10-07T06:22:30.715Z,23.80
2022-10-07T06:27:34.209Z,23.80
2022-10-07T06:32:38.133Z,23.80
2022-10-07T06:37:40.736Z,23.00
2022-10-07T06:42:43.318Z,22.30
2022-10-07T06:47:48.141Z,21.90
2022-10-07T06:52:50.962Z,21.70
2022-10-07T06:57:53.603Z,21.40
2022-10-07T07:03:01.350Z,21.10
2022-10-07T07:08:04.130Z,21.00
2022-10-07T07:13:07.513Z,21.00
2022-10-07T07:18:11.871Z,20.90
2022-10-07T07:23:14.605Z,20.80
2022-10-07T07:28:17.231Z,20.80
2022-10-07T07:33:21.492Z,20.90
2022-10-07T07:38:25.525Z,20.90
2022-10-07T07:43:28.273Z,21.20
2022-10-07T07:48:32.351Z,21.70
2022-10-07T07:53:35.097Z,22.00
2022-10-07T07:58:37.742Z,22.20
2022-10-07T08:03:43.042Z,22.40
2022-10-07T08:08:45.971Z,22.60
2022-10-07T08:13:48.890Z,22.60
2022-10-07T08:18:55.066Z,22.80
2022-10-07T08:23:58.694Z,22.90
2022-10-07T08:29:01.490Z,22.80
2022-10-07T08:34:06.481Z,23.00
2022-10-07T08:39:09.078Z,23.10
2022-10-07T08:44:17.950Z,23.20
2022-10-07T08:49:24.767Z,23.30
2022-10-07T08:54:29.102Z,23.30
2022-10-07T08:59:32.722Z,23.40
2022-10-07T09:04:43.422Z,23.50
2022-10-07T09:09:53.505Z,23.60
2022-10-07T09:14:57.735Z,23.60
2022-10-07T09:20:04.593Z,23.60
2022-10-07T09:25:19.100Z,23.70
2022-10-07T09:30:21.952Z,23.70
2022-10-07T09:35:27.071Z,23.70
2022-10-07T09:40:34.307Z,23.60
2022-10-07T09:45:37.682Z,23.80
2022-10-07T09:50:42.558Z,23.80
2022-10-07T09:55:45.792Z,23.90
2022-10-07T10:00:49.803Z,23.90
2022-10-07T10:05:54.728Z,24.00
2022-10-07T10:10:58.352Z,23.80
2022-10-07T10:16:01.418Z,24.00
2022-10-07T10:21:19.859Z,24.00
2022-10-07T10:26:37.697Z,24.10
2022-10-07T10:31:47.256Z,24.10
2022-10-07T10:36:53.626Z,24.20
2022-10-07T10:41:58.607Z,24.20
2022-10-07T10:47:04.404Z,24.20
2022-10-07T10:52:15.316Z,24.20
2022-10-07T10:57:20.666Z,24.30
2022-10-07T11:02:32.679Z,24.20
2022-10-07T11:07:38.397Z,24.10
2022-10-07T11:12:42.873Z,24.10
2022-10-07T11:17:48.427Z,24.10
2022-10-07T11:22:56.593Z,24.20
2022-10-07T11:28:03.115Z,24.30
2022-10-07T11:33:08.075Z,24.30
2022-10-07T11:38:15.698Z,24.30
2022-10-07T11:43:20.312Z,24.40
2022-10-07T11:48:24.984Z,24.50
2022-10-07T11:53:29.590Z,24.30
2022-10-07T11:58:34.430Z,24.40
2022-10-07T12:03:47.066Z,24.60
2022-10-07T12:08:52.003Z,24.60
2022-10-07T12:13:55.202Z,24.50
2022-10-07T12:19:12.764Z,24.50
2022-10-07T12:24:16.747Z,24.60
2022-10-07T12:29:23.747Z,24.70
2022-10-07T12:34:34.701Z,24.70
2022-10-07T12:39:41.542Z,24.90
2022-10-07T12:44:48.803Z,24.90
2022-10-07T12:49:54.421Z,24.90
2022-10-07T12:55:00.101Z,24.90
2022-10-07T13:00:03.396Z,24.90
2022-10-07T13:05:20.904Z,24.90
2022-10-07T13:10:38.377Z,24.90
2022-10-07T13:15:45.312Z,24.90
2022-10-07T13:21:01.890Z,24.90
2022-10-07T13:26:04.922Z,24.80
2022-10-07T13:31:17.329Z,25.00
2022-10-07T13:36:23.329Z,24.40
2022-10-07T13:41:27.551Z,24.10
2022-10-07T13:46:33.302Z,24.20
2022-10-07T13:51:38.126Z,24.00
2022-10-07T13:56:41.746Z,24.10
2022-10-07T14:01:46.912Z,24.10
2022-10-07T14:06:51.133Z,24.50
2022-10-07T14:11:55.991Z,24.50
2022-10-07T14:17:00.344Z,24.40
2022-10-07T14:22:04.383Z,24.40
2022-10-07T14:27:23.243Z,24.20
2022-10-07T14:32:45.130Z,24.50
2022-10-07T14:37:48.231Z,24.40
2022-10-07T14:42:53.131Z,24.20
2022-10-07T14:47:57.091Z,24.10
2022-10-07T14:52:59.731Z,24.20
2022-10-07T14:58:02.362Z,24.30
2022-10-07T15:03:06.387Z,24.40
2022-10-07T15:08:10.003Z,24.40
2022-10-07T15:13:14.619Z,24.20
2022-10-07T15:18:18.613Z,24.10
2022-10-07T15:23:21.258Z,24.00
2022-10-07T15:28:23.926Z,24.70
2022-10-07T15:33:27.919Z,25.10
2022-10-07T15:38:32.333Z,25.10
2022-10-07T15:43:35.421Z,25.10
2022-10-07T15:48:39.444Z,25.10
2022-10-07T15:53:42.986Z,25.10
2022-10-07T15:58:45.768Z,25.00
2022-10-07T16:03:50.254Z,25.20
2022-10-07T16:08:55.056Z,25.20
2022-10-07T16:13:59.627Z,25.10
2022-10-07T16:19:04.726Z,25.20
2022-10-07T16:24:08.513Z,25.10
2022-10-07T16:29:32.507Z,25.10
2022-10-07T16:34:36.467Z,25.10
2022-10-07T16:39:39.231Z,25.20
2022-10-07T16:44:41.836Z,25.10
2022-10-07T16:49:46.091Z,25.10
2022-10-07T16:54:48.743Z,25.10
2022-10-07T16:59:53.494Z,25.10
2022-10-07T17:04:57.418Z,25.00
2022-10-07T17:09:59.995Z,25.00
2022-10-07T17:15:03.046Z,25.00
2022-10-07T17:20:10.024Z,25.00
2022-10-07T17:25:12.755Z,25.10
2022-10-07T17:30:16.571Z,25.00
2022-10-07T17:35:21.874Z,24.90
2022-10-07T17:40:24.539Z,24.90
2022-10-07T17:45:27.601Z,25.00
2022-10-07T17:50:31.769Z,24.90
2022-10-07T17:55:34.351Z,24.90
2022-10-07T18:00:38.656Z,24.90
2022-10-07T18:05:50.266Z,24.90
2022-10-07T18:10:52.975Z,24.90
2022-10-07T18:15:59.477Z,24.80
2022-10-07T18:21:05.325Z,24.90
2022-10-07T18:26:09.964Z,24.80
2022-10-07T18:31:13.939Z,24.80
2022-10-07T18:36:18.982Z,24.80
2022-10-07T18:41:22.492Z,24.70
2022-10-07T18:46:25.245Z,24.70
2022-10-07T18:51:30.521Z,24.70
2022-10-07T18:56:37.068Z,24.70
2022-10-07T19:01:47.791Z,24.80
2022-10-07T19:06:53.955Z,24.80
2022-10-07T19:11:56.546Z,24.60
2022-10-07T19:16:59.523Z,24.70
2022-10-07T19:22:04.747Z,24.70
2022-10-07T19:27:07.758Z,24.80
2022-10-07T19:32:11.212Z,24.70
2022-10-07T19:37:16.358Z,24.70
2022-10-07T19:42:19.121Z,24.70
2022-10-07T19:47:21.703Z,24.70
2022-10-07T19:52:27.341Z,24.70
2022-10-07T19:57:31.421Z,24.70
2022-10-07T20:02:34.086Z,24.60
2022-10-07T20:07:38.084Z,24.60
2022-10-07T20:12:40.670Z,24.60
2022-10-07T20:17:45.186Z,24.50
2022-10-07T20:22:49.612Z,24.60
2022-10-07T20:27:52.218Z,24.50
2022-10-07T20:32:54.826Z,24.50
2022-10-07T20:37:58.762Z,24.50
2022-10-07T20:43:03.210Z,24.50
2022-10-07T20:48:05.833Z,24.50
2022-10-07T20:53:09.900Z,24.40
2022-10-07T20:58:14.820Z,24.50
2022-10-07T21:03:19.267Z,24.50
2022-10-07T21:08:23.249Z,24.40
2022-10-07T21:13:25.825Z,24.50
2022-10-07T21:18:30.181Z,24.50
2022-10-07T21:23:34.117Z,24.40
2022-10-07T21:28:39.229Z,24.40
2022-10-07T21:33:41.859Z,24.50
2022-10-07T21:38:46.579Z,24.50
2022-10-07T21:43:49.590Z,24.30
2022-10-07T21:48:54.182Z,24.40
2022-10-07T21:53:58.961Z,24.40
2022-10-07T21:59:03.847Z,24.40
2022-10-07T22:04:07.176Z,24.40
2022-10-07T22:09:11.132Z,24.30
2022-10-07T22:14:14.261Z,24.40
2022-10-07T22:19:17.667Z,24.40
2022-10-07T22:24:21.690Z,24.30
2022-10-07T22:29:25.119Z,24.30
2022-10-07T22:34:45.386Z,24.30
2022-10-07T22:39:49.330Z,24.30
2022-10-07T22:44:51.949Z,24.30
2022-10-07T22:49:55.146Z,24.30
2022-10-07T22:54:59.318Z,24.30
2022-10-07T23:00:03.617Z,24.30
2022-10-07T23:05:06.695Z,24.30
2022-10-07T23:10:10.907Z,24.30
2022-10-07T23:15:13.707Z,24.30
2022-10-07T23:20:16.445Z,24.30
2022-10-07T23:25:20.439Z,24.30
2022-10-07T23:30:23.534Z,24.30
2022-10-07T23:35:26.117Z,24.30
2022-10-07T23:40:30.038Z,24.30
2022-10-07T23:45:33.081Z,24.20
2022-10-07T23:50:35.701Z,24.20
2022-10-07T23:55:39.649Z,24.30
